sensor_id;sensor_type;location;lat;lon;timestamp;P1;durP1;ratioP1;P2;durP2;ratioP2
72720;SDS011;60835;50.974;10.322;2022-09-16T00:01:49;6.43;;;2.00;;
72720;SDS011;60835;50.974;10.322;2022-09-16T00:04:16;3.53;;;1.60;;
72720;SDS011;60835;50.974;10.322;2022-09-16T00:06:42;6.25;;;1.52;;
72720;SDS011;60835;50.974;10.322;2022-09-16T00:09:09;6.97;;;1.80;;
72720;SDS011;60835;50.974;10.322;2022-09-16T00:11:35;6.40;;;1.80;;
72720;SDS011;60835;50.974;10.322;2022-09-16T00:14:02;2.55;;;1.40;;
72720;SDS011;60835;50.974;10.322;2022-09-16T00:16:29;5.50;;;1.88;;
72720;SDS011;60835;50.974;10.322;2022-09-16T00:18:56;3.38;;;1.60;;
72720;SDS011;60835;50.974;10.322;2022-09-16T00:21:26;7.35;;;1.55;;
72720;SDS011;60835;50.974;10.322;2022-09-16T00:23:56;9.95;;;2.20;;
72720;SDS011;60835;50.974;10.322;2022-09-16T00:26:23;6.20;;;2.13;;
72720;SDS011;60835;50.974;10.322;2022-09-16T00:28:51;2.88;;;1.95;;
72720;SDS011;60835;50.974;10.322;2022-09-16T00:31:17;7.10;;;1.95;;
72720;SDS011;60835;50.974;10.322;2022-09-16T00:33:44;5.45;;;1.75;;
72720;SDS011;60835;50.974;10.322;2022-09-16T00:36:11;8.40;;;2.47;;
72720;SDS011;60835;50.974;10.322;2022-09-16T00:38:42;7.78;;;1.88;;
72720;SDS011;60835;50.974;10.322;2022-09-16T00:41:16;4.85;;;1.70;;
72720;SDS011;60835;50.974;10.322;2022-09-16T00:43:48;5.55;;;1.70;;
72720;SDS011;60835;50.974;10.322;2022-09-16T00:46:42;9.60;;;2.30;;
72720;SDS011;60835;50.974;10.322;2022-09-16T00:49:12;6.60;;;1.55;;
72720;SDS011;60835;50.974;10.322;2022-09-16T00:51:44;5.43;;;1.58;;
72720;SDS011;60835;50.974;10.322;2022-09-16T00:54:14;5.05;;;1.70;;
72720;SDS011;60835;50.974;10.322;2022-09-16T00:56:43;3.20;;;1.20;;
72720;SDS011;60835;50.974;10.322;2022-09-16T00:59:19;5.50;;;1.60;;
72720;SDS011;60835;50.974;10.322;2022-09-16T01:01:49;2.60;;;1.30;;
72720;SDS011;60835;50.974;10.322;2022-09-16T01:04:24;4.90;;;1.38;;
72720;SDS011;60835;50.974;10.322;2022-09-16T01:06:53;4.35;;;1.52;;
72720;SDS011;60835;50.974;10.322;2022-09-16T01:09:20;5.32;;;1.45;;
72720;SDS011;60835;50.974;10.322;2022-09-16T01:11:48;3.20;;;1.42;;
72720;SDS011;60835;50.974;10.322;2022-09-16T01:14:14;4.35;;;1.40;;
72720;SDS011;60835;50.974;10.322;2022-09-16T01:17:12;6.25;;;1.30;;
72720;SDS011;60835;50.974;10.322;2022-09-16T01:22:41;5.28;;;1.30;;
72720;SDS011;60835;50.974;10.322;2022-09-16T01:25:40;5.78;;;1.25;;
72720;SDS011;60835;50.974;10.322;2022-09-16T01:31:17;3.58;;;1.30;;
72720;SDS011;60835;50.974;10.322;2022-09-16T01:34:17;5.47;;;1.30;;
72720;SDS011;60835;50.974;10.322;2022-09-16T01:39:48;2.25;;;1.30;;
72720;SDS011;60835;50.974;10.322;2022-09-16T01:45:33;5.35;;;1.38;;
72720;SDS011;60835;50.974;10.322;2022-09-16T01:50:59;9.55;;;1.80;;
72720;SDS011;60835;50.974;10.322;2022-09-16T01:56:32;5.55;;;2.75;;
72720;SDS011;60835;50.974;10.322;2022-09-16T01:59:08;5.35;;;1.90;;
72720;SDS011;60835;50.974;10.322;2022-09-16T02:01:41;3.17;;;2.00;;
72720;SDS011;60835;50.974;10.322;2022-09-16T02:04:16;12.88;;;1.90;;
72720;SDS011;60835;50.974;10.322;2022-09-16T02:06:49;7.60;;;1.95;;
72720;SDS011;60835;50.974;10.322;2022-09-16T02:09:20;6.28;;;2.03;;
72720;SDS011;60835;50.974;10.322;2022-09-16T02:11:50;5.65;;;2.20;;
72720;SDS011;60835;50.974;10.322;2022-09-16T02:14:20;4.97;;;2.10;;
72720;SDS011;60835;50.974;10.322;2022-09-16T02:17:00;7.28;;;2.50;;
72720;SDS011;60835;50.974;10.322;2022-09-16T02:19:32;4.75;;;2.13;;
72720;SDS011;60835;50.974;10.322;2022-09-16T02:22:07;10.00;;;2.65;;
72720;SDS011;60835;50.974;10.322;2022-09-16T02:24:36;10.85;;;2.60;;
72720;SDS011;60835;50.974;10.322;2022-09-16T02:27:06;5.05;;;2.17;;
72720;SDS011;60835;50.974;10.322;2022-09-16T02:29:42;7.32;;;2.45;;
72720;SDS011;60835;50.974;10.322;2022-09-16T02:32:14;5.45;;;2.22;;
72720;SDS011;60835;50.974;10.322;2022-09-16T02:34:44;8.85;;;2.53;;
72720;SDS011;60835;50.974;10.322;2022-09-16T02:37:17;7.13;;;2.63;;
72720;SDS011;60835;50.974;10.322;2022-09-16T02:39:50;8.27;;;2.42;;
72720;SDS011;60835;50.974;10.322;2022-09-16T02:42:22;6.43;;;2.65;;
72720;SDS011;60835;50.974;10.322;2022-09-16T02:44:49;10.57;;;2.90;;
72720;SDS011;60835;50.974;10.322;2022-09-16T02:50:08;6.80;;;2.40;;
72720;SDS011;60835;50.974;10.322;2022-09-16T02:52:48;10.25;;;2.80;;
72720;SDS011;60835;50.974;10.322;2022-09-16T02:55:25;4.93;;;2.33;;
72720;SDS011;60835;50.974;10.322;2022-09-16T02:58:15;7.93;;;2.63;;
72720;SDS011;60835;50.974;10.322;2022-09-16T03:00:43;9.10;;;2.58;;
72720;SDS011;60835;50.974;10.322;2022-09-16T03:03:12;8.32;;;2.80;;
72720;SDS011;60835;50.974;10.322;2022-09-16T03:08:40;14.35;;;3.15;;
72720;SDS011;60835;50.974;10.322;2022-09-16T03:13:42;5.55;;;3.42;;
72720;SDS011;60835;50.974;10.322;2022-09-16T03:16:26;7.55;;;3.08;;
72720;SDS011;60835;50.974;10.322;2022-09-16T03:19:30;8.63;;;3.03;;
72720;SDS011;60835;50.974;10.322;2022-09-16T03:24:54;7.15;;;3.42;;
72720;SDS011;60835;50.974;10.322;2022-09-16T03:27:33;8.68;;;3.33;;
72720;SDS011;60835;50.974;10.322;2022-09-16T03:30:05;9.15;;;3.22;;
72720;SDS011;60835;50.974;10.322;2022-09-16T03:32:39;7.30;;;3.22;;
72720;SDS011;60835;50.974;10.322;2022-09-16T03:35:17;9.18;;;3.47;;
72720;SDS011;60835;50.974;10.322;2022-09-16T03:37:52;8.00;;;4.03;;
72720;SDS011;60835;50.974;10.322;2022-09-16T03:40:20;8.98;;;3.88;;
72720;SDS011;60835;50.974;10.322;2022-09-16T03:42:48;9.48;;;3.75;;
72720;SDS011;60835;50.974;10.322;2022-09-16T03:45:19;10.20;;;5.20;;
72720;SDS011;60835;50.974;10.322;2022-09-16T03:47:48;12.85;;;5.10;;
72720;SDS011;60835;50.974;10.322;2022-09-16T03:50:16;10.80;;;3.85;;
72720;SDS011;60835;50.974;10.322;2022-09-16T03:52:44;10.45;;;4.53;;
72720;SDS011;60835;50.974;10.322;2022-09-16T03:55:10;12.20;;;5.00;;
72720;SDS011;60835;50.974;10.322;2022-09-16T03:57:37;12.00;;;5.10;;
72720;SDS011;60835;50.974;10.322;2022-09-16T04:00:04;11.50;;;4.65;;
72720;SDS011;60835;50.974;10.322;2022-09-16T04:02:33;15.95;;;4.80;;
72720;SDS011;60835;50.974;10.322;2022-09-16T04:04:59;9.25;;;5.25;;
72720;SDS011;60835;50.974;10.322;2022-09-16T04:07:26;10.43;;;4.82;;
72720;SDS011;60835;50.974;10.322;2022-09-16T04:09:52;11.20;;;4.65;;
72720;SDS011;60835;50.974;10.322;2022-09-16T04:12:18;12.68;;;4.53;;
72720;SDS011;60835;50.974;10.322;2022-09-16T04:14:45;12.98;;;5.22;;
72720;SDS011;60835;50.974;10.322;2022-09-16T04:17:11;11.60;;;5.55;;
72720;SDS011;60835;50.974;10.322;2022-09-16T04:19:38;9.68;;;5.03;;
72720;SDS011;60835;50.974;10.322;2022-09-16T04:22:04;13.75;;;5.38;;
72720;SDS011;60835;50.974;10.322;2022-09-16T04:24:30;14.00;;;5.82;;
72720;SDS011;60835;50.974;10.322;2022-09-16T04:26:57;14.90;;;4.78;;
72720;SDS011;60835;50.974;10.322;2022-09-16T04:29:24;10.85;;;5.40;;
72720;SDS011;60835;50.974;10.322;2022-09-16T04:31:50;11.63;;;4.65;;
72720;SDS011;60835;50.974;10.322;2022-09-16T04:34:17;10.98;;;5.57;;
72720;SDS011;60835;50.974;10.322;2022-09-16T04:36:43;12.77;;;4.90;;
72720;SDS011;60835;50.974;10.322;2022-09-16T04:39:10;11.45;;;4.70;;
72720;SDS011;60835;50.974;10.322;2022-09-16T04:41:37;10.80;;;5.18;;
72720;SDS011;60835;50.974;10.322;2022-09-16T04:44:04;13.20;;;5.72;;
72720;SDS011;60835;50.974;10.322;2022-09-16T04:46:30;11.75;;;4.85;;
72720;SDS011;60835;50.974;10.322;2022-09-16T04:48:58;9.35;;;4.63;;
72720;SDS011;60835;50.974;10.322;2022-09-16T04:51:25;9.73;;;4.53;;
72720;SDS011;60835;50.974;10.322;2022-09-16T04:53:53;9.15;;;4.63;;
72720;SDS011;60835;50.974;10.322;2022-09-16T04:56:23;8.25;;;4.50;;
72720;SDS011;60835;50.974;10.322;2022-09-16T04:58:52;11.00;;;4.82;;
72720;SDS011;60835;50.974;10.322;2022-09-16T05:01:23;8.77;;;4.80;;
72720;SDS011;60835;50.974;10.322;2022-09-16T05:03:52;7.60;;;4.30;;
72720;SDS011;60835;50.974;10.322;2022-09-16T05:06:24;9.90;;;4.65;;
72720;SDS011;60835;50.974;10.322;2022-09-16T05:08:55;8.75;;;3.88;;
72720;SDS011;60835;50.974;10.322;2022-09-16T05:11:29;17.73;;;4.55;;
72720;SDS011;60835;50.974;10.322;2022-09-16T05:13:57;8.20;;;4.00;;
72720;SDS011;60835;50.974;10.322;2022-09-16T05:16:24;10.82;;;4.53;;
72720;SDS011;60835;50.974;10.322;2022-09-16T05:18:53;12.68;;;4.82;;
72720;SDS011;60835;50.974;10.322;2022-09-16T05:21:21;9.88;;;4.10;;
72720;SDS011;60835;50.974;10.322;2022-09-16T05:23:49;7.93;;;4.40;;
72720;SDS011;60835;50.974;10.322;2022-09-16T05:26:20;7.43;;;4.43;;
72720;SDS011;60835;50.974;10.322;2022-09-16T05:28:48;9.73;;;4.32;;
72720;SDS011;60835;50.974;10.322;2022-09-16T05:31:19;8.55;;;4.07;;
72720;SDS011;60835;50.974;10.322;2022-09-16T05:33:46;10.40;;;4.18;;
72720;SDS011;60835;50.974;10.322;2022-09-16T05:36:19;10.32;;;4.15;;
72720;SDS011;60835;50.974;10.322;2022-09-16T05:38:47;10.50;;;4.90;;
72720;SDS011;60835;50.974;10.322;2022-09-16T05:41:34;5.28;;;3.97;;
72720;SDS011;60835;50.974;10.322;2022-09-16T05:44:00;8.68;;;4.28;;
72720;SDS011;60835;50.974;10.322;2022-09-16T05:46:27;7.03;;;4.15;;
72720;SDS011;60835;50.974;10.322;2022-09-16T05:48:54;6.65;;;4.03;;
72720;SDS011;60835;50.974;10.322;2022-09-16T05:51:21;7.30;;;4.03;;
72720;SDS011;60835;50.974;10.322;2022-09-16T05:53:49;8.70;;;4.53;;
72720;SDS011;60835;50.974;10.322;2022-09-16T05:56:18;11.40;;;4.50;;
72720;SDS011;60835;50.974;10.322;2022-09-16T05:58:47;8.52;;;4.68;;
72720;SDS011;60835;50.974;10.322;2022-09-16T06:01:14;10.35;;;4.65;;
72720;SDS011;60835;50.974;10.322;2022-09-16T06:03:44;7.38;;;4.35;;
72720;SDS011;60835;50.974;10.322;2022-09-16T06:06:22;10.15;;;4.53;;
72720;SDS011;60835;50.974;10.322;2022-09-16T06:08:52;6.63;;;4.32;;
72720;SDS011;60835;50.974;10.322;2022-09-16T06:11:21;7.53;;;4.30;;
72720;SDS011;60835;50.974;10.322;2022-09-16T06:13:52;8.35;;;4.22;;
72720;SDS011;60835;50.974;10.322;2022-09-16T06:16:23;8.50;;;4.45;;
72720;SDS011;60835;50.974;10.322;2022-09-16T06:18:53;10.25;;;4.35;;
72720;SDS011;60835;50.974;10.322;2022-09-16T06:21:21;9.68;;;4.35;;
72720;SDS011;60835;50.974;10.322;2022-09-16T06:23:48;9.80;;;4.32;;
72720;SDS011;60835;50.974;10.322;2022-09-16T06:26:16;7.78;;;3.88;;
72720;SDS011;60835;50.974;10.322;2022-09-16T06:28:44;8.38;;;3.80;;
72720;SDS011;60835;50.974;10.322;2022-09-16T06:31:13;6.60;;;3.80;;
72720;SDS011;60835;50.974;10.322;2022-09-16T06:33:41;6.75;;;3.80;;
72720;SDS011;60835;50.974;10.322;2022-09-16T06:36:12;15.75;;;4.05;;
72720;SDS011;60835;50.974;10.322;2022-09-16T06:38:41;8.50;;;3.70;;
72720;SDS011;60835;50.974;10.322;2022-09-16T06:41:09;14.30;;;3.72;;
72720;SDS011;60835;50.974;10.322;2022-09-16T06:43:37;5.85;;;3.42;;
72720;SDS011;60835;50.974;10.322;2022-09-16T06:46:05;9.80;;;3.63;;
72720;SDS011;60835;50.974;10.322;2022-09-16T06:48:35;9.15;;;3.50;;
72720;SDS011;60835;50.974;10.322;2022-09-16T06:51:03;8.23;;;3.33;;
72720;SDS011;60835;50.974;10.322;2022-09-16T06:53:32;8.95;;;3.08;;
72720;SDS011;60835;50.974;10.322;2022-09-16T06:56:06;5.45;;;2.88;;
72720;SDS011;60835;50.974;10.322;2022-09-16T06:58:36;7.32;;;3.50;;
72720;SDS011;60835;50.974;10.322;2022-09-16T07:01:05;7.72;;;2.55;;
72720;SDS011;60835;50.974;10.322;2022-09-16T07:03:35;4.95;;;2.40;;
72720;SDS011;60835;50.974;10.322;2022-09-16T07:06:03;7.50;;;2.58;;
72720;SDS011;60835;50.974;10.322;2022-09-16T07:08:30;4.93;;;2.70;;
72720;SDS011;60835;50.974;10.322;2022-09-16T07:10:59;7.78;;;3.20;;
72720;SDS011;60835;50.974;10.322;2022-09-16T07:13:27;6.35;;;2.67;;
72720;SDS011;60835;50.974;10.322;2022-09-16T07:15:53;8.02;;;2.70;;
72720;SDS011;60835;50.974;10.322;2022-09-16T07:18:38;5.45;;;3.00;;
72720;SDS011;60835;50.974;10.322;2022-09-16T07:21:15;5.70;;;2.85;;
72720;SDS011;60835;50.974;10.322;2022-09-16T07:23:45;10.85;;;2.97;;
72720;SDS011;60835;50.974;10.322;2022-09-16T07:26:16;13.98;;;2.97;;
72720;SDS011;60835;50.974;10.322;2022-09-16T07:28:45;4.40;;;2.90;;
72720;SDS011;60835;50.974;10.322;2022-09-16T07:31:14;9.38;;;2.75;;
72720;SDS011;60835;50.974;10.322;2022-09-16T07:33:44;6.50;;;2.78;;
72720;SDS011;60835;50.974;10.322;2022-09-16T07:36:14;6.25;;;2.58;;
72720;SDS011;60835;50.974;10.322;2022-09-16T07:38:42;6.88;;;3.88;;
72720;SDS011;60835;50.974;10.322;2022-09-16T07:41:11;4.45;;;2.70;;
72720;SDS011;60835;50.974;10.322;2022-09-16T07:43:39;6.15;;;2.45;;
72720;SDS011;60835;50.974;10.322;2022-09-16T07:46:08;6.20;;;2.28;;
72720;SDS011;60835;50.974;10.322;2022-09-16T07:48:36;23.48;;;13.57;;
72720;SDS011;60835;50.974;10.322;2022-09-16T07:51:05;6.88;;;3.15;;
72720;SDS011;60835;50.974;10.322;2022-09-16T07:53:33;5.93;;;2.33;;
72720;SDS011;60835;50.974;10.322;2022-09-16T07:56:03;6.53;;;2.40;;
72720;SDS011;60835;50.974;10.322;2022-09-16T07:58:33;5.30;;;2.22;;
72720;SDS011;60835;50.974;10.322;2022-09-16T08:01:00;5.80;;;2.35;;
72720;SDS011;60835;50.974;10.322;2022-09-16T08:03:33;6.28;;;2.70;;
72720;SDS011;60835;50.974;10.322;2022-09-16T08:06:05;6.75;;;2.53;;
72720;SDS011;60835;50.974;10.322;2022-09-16T08:08:33;6.43;;;2.10;;
72720;SDS011;60835;50.974;10.322;2022-09-16T08:11:00;5.25;;;2.92;;
72720;SDS011;60835;50.974;10.322;2022-09-16T08:13:28;5.57;;;2.45;;
72720;SDS011;60835;50.974;10.322;2022-09-16T08:16:00;4.40;;;2.45;;
72720;SDS011;60835;50.974;10.322;2022-09-16T08:18:28;5.18;;;1.90;;
72720;SDS011;60835;50.974;10.322;2022-09-16T08:20:55;9.57;;;2.88;;
72720;SDS011;60835;50.974;10.322;2022-09-16T08:23:22;3.55;;;2.03;;
72720;SDS011;60835;50.974;10.322;2022-09-16T08:25:55;4.13;;;1.90;;
72720;SDS011;60835;50.974;10.322;2022-09-16T08:28:25;4.18;;;2.17;;
72720;SDS011;60835;50.974;10.322;2022-09-16T08:31:10;4.75;;;1.80;;
72720;SDS011;60835;50.974;10.322;2022-09-16T08:33:38;7.95;;;2.45;;
72720;SDS011;60835;50.974;10.322;2022-09-16T08:36:06;2.47;;;1.60;;
72720;SDS011;60835;50.974;10.322;2022-09-16T08:38:36;11.55;;;3.65;;
72720;SDS011;60835;50.974;10.322;2022-09-16T08:41:19;5.68;;;2.08;;
72720;SDS011;60835;50.974;10.322;2022-09-16T08:44:10;3.45;;;1.63;;
72720;SDS011;60835;50.974;10.322;2022-09-16T08:49:29;5.45;;;1.90;;
72720;SDS011;60835;50.974;10.322;2022-09-16T08:52:02;6.38;;;2.90;;
72720;SDS011;60835;50.974;10.322;2022-09-16T08:54:41;8.48;;;2.75;;
72720;SDS011;60835;50.974;10.322;2022-09-16T08:57:12;8.55;;;3.38;;
72720;SDS011;60835;50.974;10.322;2022-09-16T08:59:43;4.55;;;1.98;;
72720;SDS011;60835;50.974;10.322;2022-09-16T09:05:24;4.20;;;1.67;;
72720;SDS011;60835;50.974;10.322;2022-09-16T09:08:11;3.35;;;1.80;;
72720;SDS011;60835;50.974;10.322;2022-09-16T09:13:56;5.65;;;2.05;;
72720;SDS011;60835;50.974;10.322;2022-09-16T09:22:41;4.60;;;2.22;;
72720;SDS011;60835;50.974;10.322;2022-09-16T09:28:43;4.45;;;2.00;;
72720;SDS011;60835;50.974;10.322;2022-09-16T09:42:57;3.30;;;1.60;;
72720;SDS011;60835;50.974;10.322;2022-09-16T09:45:50;3.83;;;1.67;;
72720;SDS011;60835;50.974;10.322;2022-09-16T09:48:31;5.03;;;1.90;;
72720;SDS011;60835;50.974;10.322;2022-09-16T09:51:04;2.85;;;1.40;;
72720;SDS011;60835;50.974;10.322;2022-09-16T09:53:40;2.65;;;1.10;;
72720;SDS011;60835;50.974;10.322;2022-09-16T09:56:25;5.22;;;1.88;;
72720;SDS011;60835;50.974;10.322;2022-09-16T09:59:22;7.40;;;2.20;;
72720;SDS011;60835;50.974;10.322;2022-09-16T10:01:57;3.58;;;1.30;;
72720;SDS011;60835;50.974;10.322;2022-09-16T10:04:30;5.30;;;1.13;;
72720;SDS011;60835;50.974;10.322;2022-09-16T10:07:02;3.92;;;1.20;;
72720;SDS011;60835;50.974;10.322;2022-09-16T10:09:30;2.83;;;1.90;;
72720;SDS011;60835;50.974;10.322;2022-09-16T10:11:58;4.47;;;1.20;;
72720;SDS011;60835;50.974;10.322;2022-09-16T10:16:52;9.32;;;2.10;;
72720;SDS011;60835;50.974;10.322;2022-09-16T10:19:24;9.68;;;2.25;;
72720;SDS011;60835;50.974;10.322;2022-09-16T10:22:07;6.57;;;1.70;;
72720;SDS011;60835;50.974;10.322;2022-09-16T10:24:44;4.00;;;1.08;;
72720;SDS011;60835;50.974;10.322;2022-09-16T10:27:24;2.70;;;1.13;;
72720;SDS011;60835;50.974;10.322;2022-09-16T10:30:12;1.60;;;0.90;;
72720;SDS011;60835;50.974;10.322;2022-09-16T10:35:24;3.20;;;1.25;;
72720;SDS011;60835;50.974;10.322;2022-09-16T10:40:24;1.13;;;0.80;;
72720;SDS011;60835;50.974;10.322;2022-09-16T10:42:51;0.70;;;0.70;;
72720;SDS011;60835;50.974;10.322;2022-09-16T10:45:26;2.45;;;0.75;;
72720;SDS011;60835;50.974;10.322;2022-09-16T10:47:58;2.67;;;1.23;;
72720;SDS011;60835;50.974;10.322;2022-09-16T10:50:31;3.17;;;1.50;;
72720;SDS011;60835;50.974;10.322;2022-09-16T10:52:58;2.08;;;1.02;;
72720;SDS011;60835;50.974;10.322;2022-09-16T10:55:26;2.67;;;0.95;;
72720;SDS011;60835;50.974;10.322;2022-09-16T11:03:51;2.58;;;0.73;;
72720;SDS011;60835;50.974;10.322;2022-09-16T11:09:14;3.72;;;0.70;;
72720;SDS011;60835;50.974;10.322;2022-09-16T11:14:32;1.00;;;0.60;;
72720;SDS011;60835;50.974;10.322;2022-09-16T11:20:40;3.35;;;1.70;;
72720;SDS011;60835;50.974;10.322;2022-09-16T11:26:19;3.78;;;1.10;;
72720;SDS011;60835;50.974;10.322;2022-09-16T11:31:38;2.38;;;1.05;;
72720;SDS011;60835;50.974;10.322;2022-09-16T11:34:09;2.35;;;1.20;;
72720;SDS011;60835;50.974;10.322;2022-09-16T11:39:33;1.95;;;0.77;;
72720;SDS011;60835;50.974;10.322;2022-09-16T11:44:45;2.10;;;1.05;;
72720;SDS011;60835;50.974;10.322;2022-09-16T11:47:19;3.10;;;0.93;;
72720;SDS011;60835;50.974;10.322;2022-09-16T11:53:04;3.10;;;1.10;;
72720;SDS011;60835;50.974;10.322;2022-09-16T11:58:23;3.10;;;1.40;;
72720;SDS011;60835;50.974;10.322;2022-09-16T12:00:56;3.08;;;1.40;;
72720;SDS011;60835;50.974;10.322;2022-09-16T12:03:46;1.92;;;1.02;;
72720;SDS011;60835;50.974;10.322;2022-09-16T12:06:21;1.80;;;1.05;;
72720;SDS011;60835;50.974;10.322;2022-09-16T12:09:01;4.22;;;2.55;;
72720;SDS011;60835;50.974;10.322;2022-09-16T12:11:39;4.68;;;1.60;;
72720;SDS011;60835;50.974;10.322;2022-09-16T12:14:18;2.70;;;1.15;;
72720;SDS011;60835;50.974;10.322;2022-09-16T12:16:53;3.13;;;2.47;;
72720;SDS011;60835;50.974;10.322;2022-09-16T12:19:28;1.33;;;1.23;;
72720;SDS011;60835;50.974;10.322;2022-09-16T12:22:04;3.28;;;1.08;;
72720;SDS011;60835;50.974;10.322;2022-09-16T12:24:40;1.83;;;0.98;;
72720;SDS011;60835;50.974;10.322;2022-09-16T12:29:58;2.75;;;1.35;;
72720;SDS011;60835;50.974;10.322;2022-09-16T12:32:34;1.77;;;1.02;;
72720;SDS011;60835;50.974;10.322;2022-09-16T12:35:09;0.90;;;0.60;;
72720;SDS011;60835;50.974;10.322;2022-09-16T12:37:46;0.82;;;0.70;;
72720;SDS011;60835;50.974;10.322;2022-09-16T12:40:24;1.80;;;0.80;;
72720;SDS011;60835;50.974;10.322;2022-09-16T12:46:09;0.95;;;0.65;;
72720;SDS011;60835;50.974;10.322;2022-09-16T12:51:49;2.50;;;0.90;;
72720;SDS011;60835;50.974;10.322;2022-09-16T12:54:40;2.70;;;1.10;;
72720;SDS011;60835;50.974;10.322;2022-09-16T12:57:46;1.45;;;0.70;;
72720;SDS011;60835;50.974;10.322;2022-09-16T13:00:44;2.80;;;1.10;;
72720;SDS011;60835;50.974;10.322;2022-09-16T13:03:25;3.22;;;1.27;;
72720;SDS011;60835;50.974;10.322;2022-09-16T13:05:54;1.67;;;1.23;;
72720;SDS011;60835;50.974;10.322;2022-09-16T13:08:25;1.35;;;0.68;;
72720;SDS011;60835;50.974;10.322;2022-09-16T13:11:04;2.88;;;1.00;;
72720;SDS011;60835;50.974;10.322;2022-09-16T13:13:54;2.67;;;1.00;;
72720;SDS011;60835;50.974;10.322;2022-09-16T13:16:31;3.05;;;0.90;;
72720;SDS011;60835;50.974;10.322;2022-09-16T13:21:39;2.77;;;1.00;;
72720;SDS011;60835;50.974;10.322;2022-09-16T13:27:22;1.67;;;1.20;;
72720;SDS011;60835;50.974;10.322;2022-09-16T13:32:41;1.48;;;1.00;;
72720;SDS011;60835;50.974;10.322;2022-09-16T13:37:44;4.03;;;0.75;;
72720;SDS011;60835;50.974;10.322;2022-09-16T13:40:19;3.30;;;0.70;;
72720;SDS011;60835;50.974;10.322;2022-09-16T13:42:51;1.75;;;1.00;;
72720;SDS011;60835;50.974;10.322;2022-09-16T13:45:39;1.55;;;0.90;;
72720;SDS011;60835;50.974;10.322;2022-09-16T13:50:52;1.67;;;1.02;;
72720;SDS011;60835;50.974;10.322;2022-09-16T13:53:23;2.63;;;1.10;;
72720;SDS011;60835;50.974;10.322;2022-09-16T13:56:50;2.20;;;1.17;;
72720;SDS011;60835;50.974;10.322;2022-09-16T14:02:35;5.40;;;0.90;;
72720;SDS011;60835;50.974;10.322;2022-09-16T14:05:41;1.00;;;0.70;;
72720;SDS011;60835;50.974;10.322;2022-09-16T14:11:05;2.90;;;1.25;;
72720;SDS011;60835;50.974;10.322;2022-09-16T14:13:44;3.97;;;1.10;;
72720;SDS011;60835;50.974;10.322;2022-09-16T14:16:13;3.92;;;1.05;;
72720;SDS011;60835;50.974;10.322;2022-09-16T14:18:46;2.58;;;0.80;;
72720;SDS011;60835;50.974;10.322;2022-09-16T14:21:21;3.58;;;1.00;;
72720;SDS011;60835;50.974;10.322;2022-09-16T14:23:49;3.05;;;1.30;;
72720;SDS011;60835;50.974;10.322;2022-09-16T14:26:22;5.65;;;1.30;;
72720;SDS011;60835;50.974;10.322;2022-09-16T14:28:49;3.28;;;0.70;;
72720;SDS011;60835;50.974;10.322;2022-09-16T14:31:28;2.47;;;1.17;;
72720;SDS011;60835;50.974;10.322;2022-09-16T14:33:59;4.55;;;1.13;;
72720;SDS011;60835;50.974;10.322;2022-09-16T14:36:30;3.22;;;1.40;;
72720;SDS011;60835;50.974;10.322;2022-09-16T14:41:31;2.40;;;0.80;;
72720;SDS011;60835;50.974;10.322;2022-09-16T14:44:09;1.50;;;1.07;;
72720;SDS011;60835;50.974;10.322;2022-09-16T14:46:47;2.25;;;0.80;;
72720;SDS011;60835;50.974;10.322;2022-09-16T14:49:29;2.67;;;1.00;;
72720;SDS011;60835;50.974;10.322;2022-09-16T14:51:57;2.90;;;1.17;;
72720;SDS011;60835;50.974;10.322;2022-09-16T14:54:29;1.48;;;0.90;;
72720;SDS011;60835;50.974;10.322;2022-09-16T14:56:57;1.75;;;0.82;;
72720;SDS011;60835;50.974;10.322;2022-09-16T14:59:37;6.03;;;1.40;;
72720;SDS011;60835;50.974;10.322;2022-09-16T15:04:39;5.45;;;1.27;;
72720;SDS011;60835;50.974;10.322;2022-09-16T15:07:12;2.50;;;1.15;;
72720;SDS011;60835;50.974;10.322;2022-09-16T15:09:47;5.28;;;1.58;;
72720;SDS011;60835;50.974;10.322;2022-09-16T15:12:36;5.38;;;1.17;;
72720;SDS011;60835;50.974;10.322;2022-09-16T15:17:57;2.85;;;1.40;;
72720;SDS011;60835;50.974;10.322;2022-09-16T15:20:30;1.63;;;1.08;;
72720;SDS011;60835;50.974;10.322;2022-09-16T15:23:00;2.88;;;1.00;;
72720;SDS011;60835;50.974;10.322;2022-09-16T15:25:30;4.88;;;1.80;;
72720;SDS011;60835;50.974;10.322;2022-09-16T15:28:03;3.75;;;0.80;;
72720;SDS011;60835;50.974;10.322;2022-09-16T15:30:31;3.75;;;1.55;;
72720;SDS011;60835;50.974;10.322;2022-09-16T15:32:57;2.17;;;1.08;;
72720;SDS011;60835;50.974;10.322;2022-09-16T15:35:25;4.90;;;1.55;;
72720;SDS011;60835;50.974;10.322;2022-09-16T15:37:52;3.58;;;0.80;;
72720;SDS011;60835;50.974;10.322;2022-09-16T15:45:41;3.30;;;1.08;;
72720;SDS011;60835;50.974;10.322;2022-09-16T15:48:16;3.70;;;1.90;;
72720;SDS011;60835;50.974;10.322;2022-09-16T15:50:46;1.98;;;0.77;;
72720;SDS011;60835;50.974;10.322;2022-09-16T15:55:59;3.13;;;1.00;;
72720;SDS011;60835;50.974;10.322;2022-09-16T15:58:38;3.78;;;1.10;;
72720;SDS011;60835;50.974;10.322;2022-09-16T16:04:06;0.90;;;0.57;;
72720;SDS011;60835;50.974;10.322;2022-09-16T16:07:09;2.40;;;0.73;;
72720;SDS011;60835;50.974;10.322;2022-09-16T16:12:03;1.65;;;0.80;;
72720;SDS011;60835;50.974;10.322;2022-09-16T16:14:36;1.15;;;0.57;;
72720;SDS011;60835;50.974;10.322;2022-09-16T16:17:05;3.22;;;1.50;;
72720;SDS011;60835;50.974;10.322;2022-09-16T16:19:39;2.08;;;0.73;;
72720;SDS011;60835;50.974;10.322;2022-09-16T16:22:07;2.45;;;0.90;;
72720;SDS011;60835;50.974;10.322;2022-09-16T16:24:35;2.30;;;0.82;;
72720;SDS011;60835;50.974;10.322;2022-09-16T16:27:02;2.38;;;0.77;;
72720;SDS011;60835;50.974;10.322;2022-09-16T16:29:29;1.73;;;0.75;;
72720;SDS011;60835;50.974;10.322;2022-09-16T16:31:57;4.65;;;1.20;;
72720;SDS011;60835;50.974;10.322;2022-09-16T16:34:24;1.30;;;0.82;;
72720;SDS011;60835;50.974;10.322;2022-09-16T16:36:51;3.17;;;1.00;;
72720;SDS011;60835;50.974;10.322;2022-09-16T16:39:17;1.63;;;0.70;;
72720;SDS011;60835;50.974;10.322;2022-09-16T16:41:43;2.60;;;0.90;;
72720;SDS011;60835;50.974;10.322;2022-09-16T16:44:10;4.60;;;0.98;;
72720;SDS011;60835;50.974;10.322;2022-09-16T16:46:36;1.17;;;0.88;;
72720;SDS011;60835;50.974;10.322;2022-09-16T16:49:03;1.95;;;0.57;;
72720;SDS011;60835;50.974;10.322;2022-09-16T16:51:30;4.10;;;0.88;;
72720;SDS011;60835;50.974;10.322;2022-09-16T16:53:56;2.35;;;0.73;;
72720;SDS011;60835;50.974;10.322;2022-09-16T16:56:23;2.25;;;0.75;;
72720;SDS011;60835;50.974;10.322;2022-09-16T16:58:49;4.30;;;1.13;;
72720;SDS011;60835;50.974;10.322;2022-09-16T17:01:18;1.58;;;0.98;;
72720;SDS011;60835;50.974;10.322;2022-09-16T17:03:46;3.15;;;1.13;;
72720;SDS011;60835;50.974;10.322;2022-09-16T17:06:15;7.32;;;0.90;;
72720;SDS011;60835;50.974;10.322;2022-09-16T17:08:42;1.40;;;0.60;;
72720;SDS011;60835;50.974;10.322;2022-09-16T17:11:09;3.65;;;0.80;;
72720;SDS011;60835;50.974;10.322;2022-09-16T17:13:39;2.70;;;0.82;;
72720;SDS011;60835;50.974;10.322;2022-09-16T17:16:08;2.88;;;0.88;;
72720;SDS011;60835;50.974;10.322;2022-09-16T17:18:36;2.67;;;1.35;;
72720;SDS011;60835;50.974;10.322;2022-09-16T17:21:05;3.28;;;1.15;;
72720;SDS011;60835;50.974;10.322;2022-09-16T17:23:36;7.80;;;1.67;;
72720;SDS011;60835;50.974;10.322;2022-09-16T17:26:03;1.23;;;0.80;;
72720;SDS011;60835;50.974;10.322;2022-09-16T17:28:31;2.92;;;1.00;;
72720;SDS011;60835;50.974;10.322;2022-09-16T17:30:57;5.68;;;2.80;;
72720;SDS011;60835;50.974;10.322;2022-09-16T17:33:24;5.93;;;2.92;;